Balikesir Edremit Korfez Airport Edremit TR
ICAO: LTFD
IATA: EDO
Category: Medium
Scheduled Services: Yes

Elevation: 50 ft
TransAlt. 10000 ft.

Airport Communications:
SAR:123.1
GND:121.9
TWR:119.7

LTFD Zoom In..

If you have problems with the map follow the link
https://www.worldairports.se/pages/airport.php?
ICAO=LTFD

Runways:

(A) RW 05 length 9843 ft width 148 ft
ILS 108.90 / hdg 50

(B) RW 23 length 9843 ft width 148 ft
---- / hdg 230

Location; LTFD
Day. 18 / Time. 04.50 Zulu
* QNH: 1010
* Temperature: 25° c. 77°f.
* Wind from: 110° Speed 11 kn.
Dewpoint: 18° c.
Visibility: 10 km or more.
Clouds: Few 3500 ft.
Clouds: Scattered 2000 ft.

LTFD 180450Z 11011KT 9999 FEW035 SCT200 25/18 Q1010


Wind From 110°
Speed 11 kn.

 
 
jpsmedia.com for Web Design worldairports.se 2019   terms of use